sensor_id;sensor_type;location;lat;lon;timestamp;P1;durP1;ratioP1;P2;durP2;ratioP2
17915;SDS011;9083;49.156;8.982;2023-02-15T00:00:37;24.80;;;12.17;;
17915;SDS011;9083;49.156;8.982;2023-02-15T00:03:04;26.30;;;13.83;;
17915;SDS011;9083;49.156;8.982;2023-02-15T00:05:30;28.40;;;14.47;;
17915;SDS011;9083;49.156;8.982;2023-02-15T00:07:57;24.57;;;13.50;;
17915;SDS011;9083;49.156;8.982;2023-02-15T00:10:23;25.60;;;13.47;;
17915;SDS011;9083;49.156;8.982;2023-02-15T00:12:51;27.80;;;13.97;;
17915;SDS011;9083;49.156;8.982;2023-02-15T00:15:17;24.57;;;13.97;;
17915;SDS011;9083;49.156;8.982;2023-02-15T00:17:43;24.23;;;12.97;;
17915;SDS011;9083;49.156;8.982;2023-02-15T00:20:10;29.93;;;14.53;;
17915;SDS011;9083;49.156;8.982;2023-02-15T00:22:36;31.07;;;13.40;;
17915;SDS011;9083;49.156;8.982;2023-02-15T00:25:03;32.93;;;14.37;;
17915;SDS011;9083;49.156;8.982;2023-02-15T00:27:30;30.70;;;14.73;;
17915;SDS011;9083;49.156;8.982;2023-02-15T00:29:58;27.07;;;12.80;;
17915;SDS011;9083;49.156;8.982;2023-02-15T00:32:24;23.83;;;12.53;;
17915;SDS011;9083;49.156;8.982;2023-02-15T00:34:50;27.67;;;13.00;;
17915;SDS011;9083;49.156;8.982;2023-02-15T00:37:17;28.57;;;13.03;;
17915;SDS011;9083;49.156;8.982;2023-02-15T00:39:43;26.10;;;13.37;;
17915;SDS011;9083;49.156;8.982;2023-02-15T00:42:09;24.63;;;13.33;;
17915;SDS011;9083;49.156;8.982;2023-02-15T00:44:36;26.33;;;12.63;;
17915;SDS011;9083;49.156;8.982;2023-02-15T00:47:04;31.07;;;14.60;;
17915;SDS011;9083;49.156;8.982;2023-02-15T00:49:30;31.70;;;14.07;;
17915;SDS011;9083;49.156;8.982;2023-02-15T00:51:56;26.87;;;13.57;;
17915;SDS011;9083;49.156;8.982;2023-02-15T00:54:23;26.83;;;14.33;;
17915;SDS011;9083;49.156;8.982;2023-02-15T00:56:49;30.60;;;14.00;;
17915;SDS011;9083;49.156;8.982;2023-02-15T00:59:16;34.27;;;13.23;;
17915;SDS011;9083;49.156;8.982;2023-02-15T01:01:42;31.60;;;13.60;;
17915;SDS011;9083;49.156;8.982;2023-02-15T01:04:10;30.43;;;13.90;;
17915;SDS011;9083;49.156;8.982;2023-02-15T01:06:36;27.83;;;12.83;;
17915;SDS011;9083;49.156;8.982;2023-02-15T01:09:02;24.40;;;12.10;;
17915;SDS011;9083;49.156;8.982;2023-02-15T01:11:29;31.27;;;13.67;;
17915;SDS011;9083;49.156;8.982;2023-02-15T01:13:56;29.97;;;13.47;;
17915;SDS011;9083;49.156;8.982;2023-02-15T01:16:23;32.20;;;14.47;;
17915;SDS011;9083;49.156;8.982;2023-02-15T01:18:50;35.47;;;15.00;;
17915;SDS011;9083;49.156;8.982;2023-02-15T01:21:19;29.77;;;12.40;;
17915;SDS011;9083;49.156;8.982;2023-02-15T01:23:46;30.13;;;13.57;;
17915;SDS011;9083;49.156;8.982;2023-02-15T01:26:13;28.43;;;13.50;;
17915;SDS011;9083;49.156;8.982;2023-02-15T01:28:39;28.53;;;13.13;;
17915;SDS011;9083;49.156;8.982;2023-02-15T01:31:07;28.63;;;13.63;;
17915;SDS011;9083;49.156;8.982;2023-02-15T01:33:34;26.33;;;13.13;;
17915;SDS011;9083;49.156;8.982;2023-02-15T01:36:01;24.83;;;11.87;;
17915;SDS011;9083;49.156;8.982;2023-02-15T01:38:29;22.53;;;12.40;;
17915;SDS011;9083;49.156;8.982;2023-02-15T01:40:55;28.87;;;13.30;;
17915;SDS011;9083;49.156;8.982;2023-02-15T01:43:43;25.07;;;12.27;;
17915;SDS011;9083;49.156;8.982;2023-02-15T01:46:10;23.67;;;12.50;;
17915;SDS011;9083;49.156;8.982;2023-02-15T01:48:39;30.83;;;13.03;;
17915;SDS011;9083;49.156;8.982;2023-02-15T01:51:06;27.10;;;12.20;;
17915;SDS011;9083;49.156;8.982;2023-02-15T01:53:35;26.17;;;12.87;;
17915;SDS011;9083;49.156;8.982;2023-02-15T01:56:03;26.80;;;13.47;;
17915;SDS011;9083;49.156;8.982;2023-02-15T01:58:31;27.17;;;13.67;;
17915;SDS011;9083;49.156;8.982;2023-02-15T02:00:59;26.03;;;12.90;;
17915;SDS011;9083;49.156;8.982;2023-02-15T02:03:29;25.23;;;14.80;;
17915;SDS011;9083;49.156;8.982;2023-02-15T02:05:56;28.87;;;13.57;;
17915;SDS011;9083;49.156;8.982;2023-02-15T02:08:23;26.90;;;12.00;;
17915;SDS011;9083;49.156;8.982;2023-02-15T02:10:51;26.07;;;12.83;;
17915;SDS011;9083;49.156;8.982;2023-02-15T02:13:17;21.03;;;11.53;;
17915;SDS011;9083;49.156;8.982;2023-02-15T02:15:44;23.53;;;11.70;;
17915;SDS011;9083;49.156;8.982;2023-02-15T02:18:17;33.10;;;12.53;;
17915;SDS011;9083;49.156;8.982;2023-02-15T02:20:55;27.50;;;13.20;;
17915;SDS011;9083;49.156;8.982;2023-02-15T02:23:35;25.70;;;13.57;;
17915;SDS011;9083;49.156;8.982;2023-02-15T02:26:17;27.13;;;12.70;;
17915;SDS011;9083;49.156;8.982;2023-02-15T02:28:53;22.90;;;11.33;;
17915;SDS011;9083;49.156;8.982;2023-02-15T02:31:34;25.93;;;12.27;;
17915;SDS011;9083;49.156;8.982;2023-02-15T02:34:07;34.77;;;14.33;;
17915;SDS011;9083;49.156;8.982;2023-02-15T02:36:40;25.97;;;12.03;;
17915;SDS011;9083;49.156;8.982;2023-02-15T02:39:10;25.33;;;11.87;;
17915;SDS011;9083;49.156;8.982;2023-02-15T02:41:42;26.90;;;12.13;;
17915;SDS011;9083;49.156;8.982;2023-02-15T02:44:12;24.07;;;12.73;;
17915;SDS011;9083;49.156;8.982;2023-02-15T02:46:44;24.20;;;12.57;;
17915;SDS011;9083;49.156;8.982;2023-02-15T02:49:13;25.87;;;12.30;;
17915;SDS011;9083;49.156;8.982;2023-02-15T02:51:40;26.60;;;12.67;;
17915;SDS011;9083;49.156;8.982;2023-02-15T02:54:06;27.97;;;13.20;;
17915;SDS011;9083;49.156;8.982;2023-02-15T02:56:34;33.57;;;14.00;;
17915;SDS011;9083;49.156;8.982;2023-02-15T02:59:02;21.83;;;11.87;;
17915;SDS011;9083;49.156;8.982;2023-02-15T03:01:31;24.80;;;12.50;;
17915;SDS011;9083;49.156;8.982;2023-02-15T03:03:59;24.93;;;14.30;;
17915;SDS011;9083;49.156;8.982;2023-02-15T03:06:29;26.13;;;13.53;;
17915;SDS011;9083;49.156;8.982;2023-02-15T03:08:58;28.93;;;13.10;;
17915;SDS011;9083;49.156;8.982;2023-02-15T03:11:27;27.13;;;11.77;;
17915;SDS011;9083;49.156;8.982;2023-02-15T03:13:53;32.37;;;14.57;;
17915;SDS011;9083;49.156;8.982;2023-02-15T03:16:20;26.67;;;13.43;;
17915;SDS011;9083;49.156;8.982;2023-02-15T03:18:53;23.90;;;12.83;;
17915;SDS011;9083;49.156;8.982;2023-02-15T03:21:23;25.63;;;13.43;;
17915;SDS011;9083;49.156;8.982;2023-02-15T03:23:52;28.07;;;13.77;;
17915;SDS011;9083;49.156;8.982;2023-02-15T03:26:20;28.77;;;13.83;;
17915;SDS011;9083;49.156;8.982;2023-02-15T03:28:47;32.47;;;15.03;;
17915;SDS011;9083;49.156;8.982;2023-02-15T03:31:16;26.90;;;14.37;;
17915;SDS011;9083;49.156;8.982;2023-02-15T03:33:44;27.97;;;14.20;;
17915;SDS011;9083;49.156;8.982;2023-02-15T03:36:14;26.93;;;13.57;;
17915;SDS011;9083;49.156;8.982;2023-02-15T03:38:44;30.90;;;14.73;;
17915;SDS011;9083;49.156;8.982;2023-02-15T03:41:15;27.23;;;14.47;;
17915;SDS011;9083;49.156;8.982;2023-02-15T03:43:45;27.30;;;12.47;;
17915;SDS011;9083;49.156;8.982;2023-02-15T03:46:16;24.50;;;13.47;;
17915;SDS011;9083;49.156;8.982;2023-02-15T03:48:44;27.43;;;14.23;;
17915;SDS011;9083;49.156;8.982;2023-02-15T03:51:14;27.33;;;14.43;;
17915;SDS011;9083;49.156;8.982;2023-02-15T03:54:01;27.63;;;15.07;;
17915;SDS011;9083;49.156;8.982;2023-02-15T03:56:30;36.77;;;13.70;;
17915;SDS011;9083;49.156;8.982;2023-02-15T03:58:56;34.07;;;15.57;;
17915;SDS011;9083;49.156;8.982;2023-02-15T04:01:40;29.50;;;15.90;;
17915;SDS011;9083;49.156;8.982;2023-02-15T04:04:27;28.87;;;14.57;;
17915;SDS011;9083;49.156;8.982;2023-02-15T04:06:54;36.30;;;15.00;;
17915;SDS011;9083;49.156;8.982;2023-02-15T04:09:21;43.90;;;20.67;;
17915;SDS011;9083;49.156;8.982;2023-02-15T04:12:06;56.53;;;20.80;;
17915;SDS011;9083;49.156;8.982;2023-02-15T04:14:32;96.47;;;31.77;;
17915;SDS011;9083;49.156;8.982;2023-02-15T04:17:16;33.90;;;16.20;;
17915;SDS011;9083;49.156;8.982;2023-02-15T04:19:43;43.43;;;25.50;;
17915;SDS011;9083;49.156;8.982;2023-02-15T04:22:26;30.40;;;15.57;;
17915;SDS011;9083;49.156;8.982;2023-02-15T04:25:10;32.10;;;15.60;;
17915;SDS011;9083;49.156;8.982;2023-02-15T04:27:39;29.50;;;15.00;;
17915;SDS011;9083;49.156;8.982;2023-02-15T04:30:06;34.10;;;15.73;;
17915;SDS011;9083;49.156;8.982;2023-02-15T04:32:33;26.77;;;13.83;;
17915;SDS011;9083;49.156;8.982;2023-02-15T04:34:59;29.47;;;13.67;;
17915;SDS011;9083;49.156;8.982;2023-02-15T04:37:25;31.77;;;16.47;;
17915;SDS011;9083;49.156;8.982;2023-02-15T04:39:53;49.77;;;24.13;;
17915;SDS011;9083;49.156;8.982;2023-02-15T04:42:19;52.67;;;26.33;;
17915;SDS011;9083;49.156;8.982;2023-02-15T04:44:47;42.17;;;19.37;;
17915;SDS011;9083;49.156;8.982;2023-02-15T04:47:13;38.93;;;17.30;;
17915;SDS011;9083;49.156;8.982;2023-02-15T04:49:40;35.50;;;16.17;;
17915;SDS011;9083;49.156;8.982;2023-02-15T04:52:06;34.67;;;16.00;;
17915;SDS011;9083;49.156;8.982;2023-02-15T04:54:33;32.07;;;15.87;;
17915;SDS011;9083;49.156;8.982;2023-02-15T04:56:59;38.67;;;16.73;;
17915;SDS011;9083;49.156;8.982;2023-02-15T04:59:25;43.73;;;21.07;;
17915;SDS011;9083;49.156;8.982;2023-02-15T05:01:53;39.37;;;17.97;;
17915;SDS011;9083;49.156;8.982;2023-02-15T05:04:20;34.10;;;16.00;;
17915;SDS011;9083;49.156;8.982;2023-02-15T05:06:46;36.03;;;18.10;;
17915;SDS011;9083;49.156;8.982;2023-02-15T05:09:12;34.57;;;18.60;;
17915;SDS011;9083;49.156;8.982;2023-02-15T05:11:39;29.73;;;14.53;;
17915;SDS011;9083;49.156;8.982;2023-02-15T05:14:05;34.50;;;16.77;;
17915;SDS011;9083;49.156;8.982;2023-02-15T05:16:32;41.30;;;18.67;;
17915;SDS011;9083;49.156;8.982;2023-02-15T05:19:00;40.23;;;19.50;;
17915;SDS011;9083;49.156;8.982;2023-02-15T05:21:26;39.37;;;18.87;;
17915;SDS011;9083;49.156;8.982;2023-02-15T05:23:52;33.50;;;15.23;;
17915;SDS011;9083;49.156;8.982;2023-02-15T05:26:20;42.60;;;18.27;;
17915;SDS011;9083;49.156;8.982;2023-02-15T05:29:04;37.33;;;16.33;;
17915;SDS011;9083;49.156;8.982;2023-02-15T05:31:31;40.53;;;18.33;;
17915;SDS011;9083;49.156;8.982;2023-02-15T05:33:57;46.47;;;20.13;;
17915;SDS011;9083;49.156;8.982;2023-02-15T05:36:25;40.83;;;18.13;;
17915;SDS011;9083;49.156;8.982;2023-02-15T05:38:52;31.53;;;15.40;;
17915;SDS011;9083;49.156;8.982;2023-02-15T05:41:18;38.47;;;17.37;;
17915;SDS011;9083;49.156;8.982;2023-02-15T05:43:45;28.47;;;13.80;;
17915;SDS011;9083;49.156;8.982;2023-02-15T05:46:11;27.53;;;13.33;;
17915;SDS011;9083;49.156;8.982;2023-02-15T05:48:38;29.43;;;14.33;;
17915;SDS011;9083;49.156;8.982;2023-02-15T05:51:05;30.23;;;13.47;;
17915;SDS011;9083;49.156;8.982;2023-02-15T05:53:34;31.80;;;15.77;;
17915;SDS011;9083;49.156;8.982;2023-02-15T05:56:00;31.63;;;14.73;;
17915;SDS011;9083;49.156;8.982;2023-02-15T05:58:27;34.90;;;16.33;;
17915;SDS011;9083;49.156;8.982;2023-02-15T06:00:54;35.70;;;15.33;;
17915;SDS011;9083;49.156;8.982;2023-02-15T06:03:21;31.90;;;14.20;;
17915;SDS011;9083;49.156;8.982;2023-02-15T06:05:47;29.97;;;13.23;;
17915;SDS011;9083;49.156;8.982;2023-02-15T06:08:14;29.47;;;13.97;;
17915;SDS011;9083;49.156;8.982;2023-02-15T06:10:42;28.03;;;14.13;;
17915;SDS011;9083;49.156;8.982;2023-02-15T06:13:08;30.63;;;14.60;;
17915;SDS011;9083;49.156;8.982;2023-02-15T06:15:35;29.50;;;13.90;;
17915;SDS011;9083;49.156;8.982;2023-02-15T06:18:01;27.13;;;12.97;;
17915;SDS011;9083;49.156;8.982;2023-02-15T06:20:27;28.77;;;12.90;;
17915;SDS011;9083;49.156;8.982;2023-02-15T06:22:54;28.20;;;14.23;;
17915;SDS011;9083;49.156;8.982;2023-02-15T06:25:20;28.27;;;13.87;;
17915;SDS011;9083;49.156;8.982;2023-02-15T06:27:48;32.97;;;16.10;;
17915;SDS011;9083;49.156;8.982;2023-02-15T06:30:15;30.93;;;15.03;;
17915;SDS011;9083;49.156;8.982;2023-02-15T06:32:41;29.83;;;13.23;;
17915;SDS011;9083;49.156;8.982;2023-02-15T06:35:08;35.50;;;14.43;;
17915;SDS011;9083;49.156;8.982;2023-02-15T06:37:34;29.43;;;14.43;;
17915;SDS011;9083;49.156;8.982;2023-02-15T06:40:00;27.20;;;12.87;;
17915;SDS011;9083;49.156;8.982;2023-02-15T06:42:27;25.50;;;13.20;;
17915;SDS011;9083;49.156;8.982;2023-02-15T06:44:54;27.90;;;13.13;;
17915;SDS011;9083;49.156;8.982;2023-02-15T06:47:21;33.77;;;14.50;;
17915;SDS011;9083;49.156;8.982;2023-02-15T06:49:47;31.03;;;13.17;;
17915;SDS011;9083;49.156;8.982;2023-02-15T06:52:14;27.23;;;13.33;;
17915;SDS011;9083;49.156;8.982;2023-02-15T06:54:40;31.00;;;13.40;;
17915;SDS011;9083;49.156;8.982;2023-02-15T06:57:06;30.50;;;14.40;;
17915;SDS011;9083;49.156;8.982;2023-02-15T06:59:34;30.87;;;13.80;;
17915;SDS011;9083;49.156;8.982;2023-02-15T07:02:02;39.30;;;16.60;;
17915;SDS011;9083;49.156;8.982;2023-02-15T07:04:28;31.17;;;14.20;;
17915;SDS011;9083;49.156;8.982;2023-02-15T07:06:55;31.47;;;14.63;;
17915;SDS011;9083;49.156;8.982;2023-02-15T07:09:21;30.60;;;14.27;;
17915;SDS011;9083;49.156;8.982;2023-02-15T07:11:48;33.43;;;15.77;;
17915;SDS011;9083;49.156;8.982;2023-02-15T07:14:31;45.80;;;20.13;;
17915;SDS011;9083;49.156;8.982;2023-02-15T07:16:58;39.13;;;19.00;;
17915;SDS011;9083;49.156;8.982;2023-02-15T07:19:26;41.90;;;17.03;;
17915;SDS011;9083;49.156;8.982;2023-02-15T07:21:52;43.07;;;16.60;;
17915;SDS011;9083;49.156;8.982;2023-02-15T07:24:18;33.73;;;15.43;;
17915;SDS011;9083;49.156;8.982;2023-02-15T07:26:45;37.83;;;15.50;;
17915;SDS011;9083;49.156;8.982;2023-02-15T07:29:12;28.77;;;14.50;;
17915;SDS011;9083;49.156;8.982;2023-02-15T07:31:38;30.83;;;14.83;;
17915;SDS011;9083;49.156;8.982;2023-02-15T07:34:05;29.07;;;15.70;;
17915;SDS011;9083;49.156;8.982;2023-02-15T07:36:33;31.30;;;14.27;;
17915;SDS011;9083;49.156;8.982;2023-02-15T07:38:59;29.37;;;15.20;;
17915;SDS011;9083;49.156;8.982;2023-02-15T07:41:25;33.73;;;15.50;;
17915;SDS011;9083;49.156;8.982;2023-02-15T07:43:52;34.57;;;15.13;;
17915;SDS011;9083;49.156;8.982;2023-02-15T07:46:18;34.50;;;14.70;;
17915;SDS011;9083;49.156;8.982;2023-02-15T07:48:46;33.47;;;14.57;;
17915;SDS011;9083;49.156;8.982;2023-02-15T07:51:12;29.77;;;14.40;;
17915;SDS011;9083;49.156;8.982;2023-02-15T07:53:40;32.00;;;14.97;;
17915;SDS011;9083;49.156;8.982;2023-02-15T07:56:09;31.53;;;14.90;;
17915;SDS011;9083;49.156;8.982;2023-02-15T07:58:35;22.40;;;12.27;;
17915;SDS011;9083;49.156;8.982;2023-02-15T08:01:17;26.00;;;12.33;;
17915;SDS011;9083;49.156;8.982;2023-02-15T08:03:44;32.40;;;14.97;;
17915;SDS011;9083;49.156;8.982;2023-02-15T08:06:10;25.30;;;11.60;;
17915;SDS011;9083;49.156;8.982;2023-02-15T08:08:38;28.20;;;12.80;;
17915;SDS011;9083;49.156;8.982;2023-02-15T08:11:06;26.30;;;12.67;;
17915;SDS011;9083;49.156;8.982;2023-02-15T08:13:54;26.03;;;12.43;;
17915;SDS011;9083;49.156;8.982;2023-02-15T08:16:22;26.33;;;12.83;;
17915;SDS011;9083;49.156;8.982;2023-02-15T08:18:48;30.77;;;13.97;;
17915;SDS011;9083;49.156;8.982;2023-02-15T08:21:14;34.67;;;14.87;;
17915;SDS011;9083;49.156;8.982;2023-02-15T08:23:41;32.47;;;16.03;;
17915;SDS011;9083;49.156;8.982;2023-02-15T08:26:09;33.60;;;15.93;;
17915;SDS011;9083;49.156;8.982;2023-02-15T08:28:35;32.73;;;16.27;;
17915;SDS011;9083;49.156;8.982;2023-02-15T08:31:05;34.17;;;15.17;;
17915;SDS011;9083;49.156;8.982;2023-02-15T08:33:31;32.43;;;15.43;;
17915;SDS011;9083;49.156;8.982;2023-02-15T08:36:01;30.83;;;13.73;;
17915;SDS011;9083;49.156;8.982;2023-02-15T08:38:28;27.23;;;13.17;;
17915;SDS011;9083;49.156;8.982;2023-02-15T08:40:54;33.30;;;14.93;;
17915;SDS011;9083;49.156;8.982;2023-02-15T08:43:22;26.73;;;14.47;;
17915;SDS011;9083;49.156;8.982;2023-02-15T08:45:48;32.73;;;15.13;;
17915;SDS011;9083;49.156;8.982;2023-02-15T08:48:14;33.17;;;14.60;;
17915;SDS011;9083;49.156;8.982;2023-02-15T08:50:41;33.30;;;14.53;;
17915;SDS011;9083;49.156;8.982;2023-02-15T08:53:07;31.07;;;14.00;;
17915;SDS011;9083;49.156;8.982;2023-02-15T08:55:34;31.50;;;15.00;;
17915;SDS011;9083;49.156;8.982;2023-02-15T08:58:00;30.10;;;15.17;;
17915;SDS011;9083;49.156;8.982;2023-02-15T09:00:28;28.70;;;13.73;;
17915;SDS011;9083;49.156;8.982;2023-02-15T09:02:57;29.33;;;14.27;;
17915;SDS011;9083;49.156;8.982;2023-02-15T09:05:23;33.20;;;16.63;;
17915;SDS011;9083;49.156;8.982;2023-02-15T09:07:50;34.97;;;15.80;;
17915;SDS011;9083;49.156;8.982;2023-02-15T09:10:16;33.23;;;15.63;;
17915;SDS011;9083;49.156;8.982;2023-02-15T09:12:43;34.00;;;16.13;;
17915;SDS011;9083;49.156;8.982;2023-02-15T09:15:09;35.73;;;15.70;;
17915;SDS011;9083;49.156;8.982;2023-02-15T09:17:37;34.33;;;15.77;;
17915;SDS011;9083;49.156;8.982;2023-02-15T09:20:04;40.77;;;18.10;;
17915;SDS011;9083;49.156;8.982;2023-02-15T09:22:30;30.87;;;14.63;;
17915;SDS011;9083;49.156;8.982;2023-02-15T09:24:57;34.27;;;14.70;;
17915;SDS011;9083;49.156;8.982;2023-02-15T09:27:23;28.00;;;13.80;;
17915;SDS011;9083;49.156;8.982;2023-02-15T09:29:50;34.23;;;15.83;;
17915;SDS011;9083;49.156;8.982;2023-02-15T09:32:16;39.03;;;16.53;;
17915;SDS011;9083;49.156;8.982;2023-02-15T09:34:44;34.17;;;15.40;;
17915;SDS011;9083;49.156;8.982;2023-02-15T09:37:10;31.13;;;13.83;;
17915;SDS011;9083;49.156;8.982;2023-02-15T09:39:37;31.33;;;14.93;;
17915;SDS011;9083;49.156;8.982;2023-02-15T09:42:15;31.77;;;15.47;;
17915;SDS011;9083;49.156;8.982;2023-02-15T09:44:49;30.13;;;14.87;;
17915;SDS011;9083;49.156;8.982;2023-02-15T09:47:27;34.80;;;16.37;;
17915;SDS011;9083;49.156;8.982;2023-02-15T09:50:03;26.53;;;12.87;;
17915;SDS011;9083;49.156;8.982;2023-02-15T09:52:38;30.73;;;14.70;;
17915;SDS011;9083;49.156;8.982;2023-02-15T09:55:15;32.63;;;15.13;;
17915;SDS011;9083;49.156;8.982;2023-02-15T09:57:48;28.23;;;14.27;;
17915;SDS011;9083;49.156;8.982;2023-02-15T10:00:16;35.00;;;16.03;;
17915;SDS011;9083;49.156;8.982;2023-02-15T10:05:37;39.70;;;17.90;;
17915;SDS011;9083;49.156;8.982;2023-02-15T10:08:19;37.97;;;16.97;;
17915;SDS011;9083;49.156;8.982;2023-02-15T10:10:51;41.13;;;19.20;;
17915;SDS011;9083;49.156;8.982;2023-02-15T10:13:23;39.10;;;18.90;;
17915;SDS011;9083;49.156;8.982;2023-02-15T10:15:53;38.77;;;18.10;;
17915;SDS011;9083;49.156;8.982;2023-02-15T10:18:33;42.97;;;18.67;;
17915;SDS011;9083;49.156;8.982;2023-02-15T10:21:04;40.50;;;17.47;;
17915;SDS011;9083;49.156;8.982;2023-02-15T10:23:41;34.03;;;17.33;;
17915;SDS011;9083;49.156;8.982;2023-02-15T10:26:15;41.73;;;19.07;;
17915;SDS011;9083;49.156;8.982;2023-02-15T10:28:43;33.93;;;16.90;;
17915;SDS011;9083;49.156;8.982;2023-02-15T10:31:12;36.53;;;17.63;;
17915;SDS011;9083;49.156;8.982;2023-02-15T10:33:40;35.27;;;17.00;;
17915;SDS011;9083;49.156;8.982;2023-02-15T10:36:15;39.37;;;17.73;;
17915;SDS011;9083;49.156;8.982;2023-02-15T10:38:44;41.43;;;16.90;;
17915;SDS011;9083;49.156;8.982;2023-02-15T10:41:17;38.70;;;17.50;;
17915;SDS011;9083;49.156;8.982;2023-02-15T10:43:54;39.70;;;17.37;;
17915;SDS011;9083;49.156;8.982;2023-02-15T10:46:26;39.07;;;17.67;;
17915;SDS011;9083;49.156;8.982;2023-02-15T10:49:07;36.33;;;17.27;;
17915;SDS011;9083;49.156;8.982;2023-02-15T10:51:40;36.47;;;17.50;;
17915;SDS011;9083;49.156;8.982;2023-02-15T10:54:13;36.23;;;17.37;;
17915;SDS011;9083;49.156;8.982;2023-02-15T10:56:44;37.17;;;17.40;;
17915;SDS011;9083;49.156;8.982;2023-02-15T10:59:18;39.87;;;17.60;;
17915;SDS011;9083;49.156;8.982;2023-02-15T11:01:49;33.40;;;16.73;;
17915;SDS011;9083;49.156;8.982;2023-02-15T11:04:28;36.07;;;17.13;;
17915;SDS011;9083;49.156;8.982;2023-02-15T11:07:02;37.70;;;17.47;;
17915;SDS011;9083;49.156;8.982;2023-02-15T11:09:29;36.93;;;17.73;;
17915;SDS011;9083;49.156;8.982;2023-02-15T11:11:59;39.53;;;17.93;;
17915;SDS011;9083;49.156;8.982;2023-02-15T11:14:27;31.03;;;16.53;;
17915;SDS011;9083;49.156;8.982;2023-02-15T11:16:57;35.77;;;18.47;;
17915;SDS011;9083;49.156;8.982;2023-02-15T11:19:26;41.40;;;16.93;;
17915;SDS011;9083;49.156;8.982;2023-02-15T11:21:55;37.30;;;18.33;;
17915;SDS011;9083;49.156;8.982;2023-02-15T11:24:29;38.53;;;18.07;;
17915;SDS011;9083;49.156;8.982;2023-02-15T11:26:57;40.80;;;18.57;;
17915;SDS011;9083;49.156;8.982;2023-02-15T11:29:28;38.87;;;17.80;;
17915;SDS011;9083;49.156;8.982;2023-02-15T11:31:58;49.80;;;18.40;;
17915;SDS011;9083;49.156;8.982;2023-02-15T11:34:26;42.77;;;18.63;;
17915;SDS011;9083;49.156;8.982;2023-02-15T11:36:54;38.00;;;18.23;;
17915;SDS011;9083;49.156;8.982;2023-02-15T11:39:21;37.20;;;16.93;;
17915;SDS011;9083;49.156;8.982;2023-02-15T11:41:52;40.40;;;19.17;;
17915;SDS011;9083;49.156;8.982;2023-02-15T11:44:20;41.23;;;17.33;;
17915;SDS011;9083;49.156;8.982;2023-02-15T11:46:48;43.30;;;17.73;;
17915;SDS011;9083;49.156;8.982;2023-02-15T11:49:20;48.47;;;20.37;;
17915;SDS011;9083;49.156;8.982;2023-02-15T11:51:47;40.63;;;18.37;;
17915;SDS011;9083;49.156;8.982;2023-02-15T11:54:15;36.63;;;17.80;;
17915;SDS011;9083;49.156;8.982;2023-02-15T11:56:42;34.27;;;16.07;;
17915;SDS011;9083;49.156;8.982;2023-02-15T11:59:10;34.43;;;17.00;;
17915;SDS011;9083;49.156;8.982;2023-02-15T12:01:38;40.37;;;19.03;;
17915;SDS011;9083;49.156;8.982;2023-02-15T12:04:06;34.33;;;17.30;;
17915;SDS011;9083;49.156;8.982;2023-02-15T12:06:35;35.47;;;17.10;;
17915;SDS011;9083;49.156;8.982;2023-02-15T12:09:05;35.10;;;18.17;;
17915;SDS011;9083;49.156;8.982;2023-02-15T12:11:34;35.13;;;18.13;;
17915;SDS011;9083;49.156;8.982;2023-02-15T12:14:02;43.07;;;19.50;;
17915;SDS011;9083;49.156;8.982;2023-02-15T12:16:32;42.83;;;20.97;;
17915;SDS011;9083;49.156;8.982;2023-02-15T12:18:59;46.97;;;20.07;;
17915;SDS011;9083;49.156;8.982;2023-02-15T12:21:27;43.93;;;19.73;;
17915;SDS011;9083;49.156;8.982;2023-02-15T12:23:56;44.17;;;18.97;;
17915;SDS011;9083;49.156;8.982;2023-02-15T12:26:24;38.97;;;19.00;;
17915;SDS011;9083;49.156;8.982;2023-02-15T12:28:51;34.83;;;16.80;;
17915;SDS011;9083;49.156;8.982;2023-02-15T12:31:20;40.27;;;16.90;;
17915;SDS011;9083;49.156;8.982;2023-02-15T12:33:48;39.10;;;18.07;;
17915;SDS011;9083;49.156;8.982;2023-02-15T12:36:17;43.13;;;19.00;;
17915;SDS011;9083;49.156;8.982;2023-02-15T12:38:44;30.03;;;16.70;;
17915;SDS011;9083;49.156;8.982;2023-02-15T12:41:27;34.57;;;15.27;;
17915;SDS011;9083;49.156;8.982;2023-02-15T12:44:02;31.87;;;16.70;;
17915;SDS011;9083;49.156;8.982;2023-02-15T12:46:29;33.80;;;17.63;;
17915;SDS011;9083;49.156;8.982;2023-02-15T12:49:06;37.60;;;19.17;;
17915;SDS011;9083;49.156;8.982;2023-02-15T12:51:42;31.37;;;16.77;;
17915;SDS011;9083;49.156;8.982;2023-02-15T12:54:15;38.07;;;20.87;;
17915;SDS011;9083;49.156;8.982;2023-02-15T12:56:42;42.97;;;19.40;;
17915;SDS011;9083;49.156;8.982;2023-02-15T12:59:12;32.67;;;17.07;;
17915;SDS011;9083;49.156;8.982;2023-02-15T13:01:39;31.77;;;18.63;;
17915;SDS011;9083;49.156;8.982;2023-02-15T13:04:12;56.83;;;21.53;;
17915;SDS011;9083;49.156;8.982;2023-02-15T13:06:46;35.27;;;18.23;;
17915;SDS011;9083;49.156;8.982;2023-02-15T13:09:16;36.67;;;19.10;;
17915;SDS011;9083;49.156;8.982;2023-02-15T13:11:44;43.67;;;22.20;;
17915;SDS011;9083;49.156;8.982;2023-02-15T13:14:16;47.57;;;21.30;;
17915;SDS011;9083;49.156;8.982;2023-02-15T13:16:44;56.03;;;20.67;;
17915;SDS011;9083;49.156;8.982;2023-02-15T13:19:12;43.13;;;19.90;;
17915;SDS011;9083;49.156;8.982;2023-02-15T13:21:39;39.27;;;19.80;;
17915;SDS011;9083;49.156;8.982;2023-02-15T13:24:11;45.57;;;22.53;;
17915;SDS011;9083;49.156;8.982;2023-02-15T13:26:41;44.73;;;21.83;;
17915;SDS011;9083;49.156;8.982;2023-02-15T13:29:12;52.73;;;21.67;;
17915;SDS011;9083;49.156;8.982;2023-02-15T13:31:41;41.07;;;21.13;;
17915;SDS011;9083;49.156;8.982;2023-02-15T13:34:09;42.53;;;20.23;;
17915;SDS011;9083;49.156;8.982;2023-02-15T13:36:39;41.03;;;20.30;;
17915;SDS011;9083;49.156;8.982;2023-02-15T13:39:11;41.57;;;21.43;;
17915;SDS011;9083;49.156;8.982;2023-02-15T13:41:46;37.23;;;19.10;;
17915;SDS011;9083;49.156;8.982;2023-02-15T13:44:17;37.30;;;19.60;;
17915;SDS011;9083;49.156;8.982;2023-02-15T13:46:53;42.73;;;21.13;;
17915;SDS011;9083;49.156;8.982;2023-02-15T13:49:27;43.43;;;21.90;;
17915;SDS011;9083;49.156;8.982;2023-02-15T13:51:58;40.37;;;20.10;;
17915;SDS011;9083;49.156;8.982;2023-02-15T13:57:24;37.53;;;20.70;;
17915;SDS011;9083;49.156;8.982;2023-02-15T13:59:58;34.63;;;17.03;;
17915;SDS011;9083;49.156;8.982;2023-02-15T14:02:49;40.10;;;19.57;;
17915;SDS011;9083;49.156;8.982;2023-02-15T14:05:24;52.77;;;26.53;;
17915;SDS011;9083;49.156;8.982;2023-02-15T14:07:59;48.70;;;22.00;;
17915;SDS011;9083;49.156;8.982;2023-02-15T14:10:34;41.77;;;21.50;;
17915;SDS011;9083;49.156;8.982;2023-02-15T14:13:10;45.43;;;21.43;;
17915;SDS011;9083;49.156;8.982;2023-02-15T14:15:44;37.00;;;19.43;;
17915;SDS011;9083;49.156;8.982;2023-02-15T14:18:15;41.63;;;21.13;;
17915;SDS011;9083;49.156;8.982;2023-02-15T14:20:51;43.50;;;22.53;;
17915;SDS011;9083;49.156;8.982;2023-02-15T14:23:23;45.77;;;23.57;;
17915;SDS011;9083;49.156;8.982;2023-02-15T14:25:55;38.47;;;19.93;;
17915;SDS011;9083;49.156;8.982;2023-02-15T14:28:26;40.07;;;19.60;;
17915;SDS011;9083;49.156;8.982;2023-02-15T14:30:55;37.87;;;20.27;;
17915;SDS011;9083;49.156;8.982;2023-02-15T14:33:29;38.27;;;20.67;;
17915;SDS011;9083;49.156;8.982;2023-02-15T14:35:57;46.63;;;21.63;;
17915;SDS011;9083;49.156;8.982;2023-02-15T14:38:37;42.47;;;22.70;;
17915;SDS011;9083;49.156;8.982;2023-02-15T14:41:04;42.00;;;21.63;;
17915;SDS011;9083;49.156;8.982;2023-02-15T14:43:37;41.23;;;20.87;;
17915;SDS011;9083;49.156;8.982;2023-02-15T14:46:07;43.70;;;20.03;;
17915;SDS011;9083;49.156;8.982;2023-02-15T14:48:38;38.37;;;20.67;;
17915;SDS011;9083;49.156;8.982;2023-02-15T14:51:05;39.17;;;21.10;;